Time;durP1;ratioP1;P1;durP2;ratioP2;P2;SDS_P1;SDS_P2;PMS_P1;PMS_P2;Temp;Humidity;BMP_temperature;BMP_pressure;BME280_temperature;BME280_humidity;BME280_pressure;Samples;Min_cycle;Max_cycle;Signal;HPM_P1;HPM_P2
2023/12/16 00:00:53;;;;;;;11.70;5.03;;;7.50;1.00;;;;;;5074720;28;20178;-70
2023/12/16 00:03:19;;;;;;;14.40;5.10;;;7.50;1.00;;;;;;5075125;28;20185;-66
2023/12/16 00:05:45;;;;;;;18.07;6.73;;;7.60;1.00;;;;;;5073811;28;20409;-67
2023/12/16 00:08:11;;;;;;;13.40;4.70;;;7.50;1.00;;;;;;5075179;28;20200;-66
2023/12/16 00:10:37;;;;;;;14.70;6.20;;;7.50;1.00;;;;;;5073563;28;20174;-71
2023/12/16 00:13:02;;;;;;;8.50;4.50;;;7.50;1.00;;;;;;5061565;28;20499;-70
2023/12/16 00:15:28;;;;;;;25.83;9.00;;;7.40;1.00;;;;;;5073759;28;20178;-70
2023/12/16 00:17:54;;;;;;;14.87;5.00;;;7.50;1.00;;;;;;5074892;28;20182;-70
2023/12/16 00:20:20;;;;;;;18.73;5.03;;;7.50;1.00;;;;;;5060043;28;20203;-68
2023/12/16 00:22:45;;;;;;;19.80;5.43;;;7.50;1.00;;;;;;5054635;28;20163;-70
2023/12/16 00:25:12;;;;;;;15.80;6.10;;;7.50;1.00;;;;;;5052210;28;20493;-67
2023/12/16 00:27:37;;;;;;;18.80;4.97;;;7.50;1.00;;;;;;5054452;28;20614;-68
2023/12/16 00:30:05;;;;;;;20.47;6.10;;;7.50;1.00;;;;;;5053983;28;20404;-67
2023/12/16 00:32:31;;;;;;;12.17;4.43;;;7.40;1.00;;;;;;5054208;28;20167;-69
2023/12/16 00:34:57;;;;;;;19.97;6.00;;;7.40;1.00;;;;;;5052651;28;20483;-70
2023/12/16 00:37:23;;;;;;;10.60;5.00;;;7.40;1.00;;;;;;5054432;28;20205;-67
2023/12/16 00:39:49;;;;;;;15.87;5.30;;;7.40;1.00;;;;;;5055966;28;20167;-70
2023/12/16 00:42:14;;;;;;;17.23;7.63;;;7.40;1.00;;;;;;5073117;28;20930;-69
2023/12/16 00:44:40;;;;;;;19.93;5.13;;;7.40;1.00;;;;;;5073325;28;20190;-69
2023/12/16 00:47:06;;;;;;;8.83;4.83;;;7.40;1.00;;;;;;5070845;28;20208;-66
2023/12/16 00:49:32;;;;;;;17.40;5.33;;;7.40;1.00;;;;;;5072341;28;20170;-70
2023/12/16 00:51:58;;;;;;;19.63;6.30;;;7.40;1.00;;;;;;5069375;28;20426;-71
2023/12/16 00:54:24;;;;;;;14.90;6.30;;;7.40;1.00;;;;;;5035355;28;20167;-68
2023/12/16 00:56:50;;;;;;;13.63;5.13;;;7.40;1.00;;;;;;5032833;28;20450;-67
2023/12/16 00:59:16;;;;;;;12.53;6.30;;;7.40;1.00;;;;;;5074031;28;20556;-67
2023/12/16 01:01:42;;;;;;;16.50;6.20;;;7.40;1.00;;;;;;5074071;28;20375;-70
2023/12/16 01:04:09;;;;;;;29.93;6.90;;;7.40;1.00;;;;;;5073695;28;20413;-71
2023/12/16 01:06:34;;;;;;;29.30;7.60;;;7.40;1.00;;;;;;5073224;28;20401;-70
2023/12/16 01:09:00;;;;;;;19.57;9.10;;;7.30;1.00;;;;;;5066707;28;20784;-66
2023/12/16 01:11:26;;;;;;;30.87;8.23;;;7.30;1.00;;;;;;5072812;28;20184;-71
2023/12/16 01:13:52;;;;;;;23.40;7.67;;;7.30;1.00;;;;;;5073971;28;20193;-67
2023/12/16 01:16:17;;;;;;;21.37;7.30;;;7.30;1.00;;;;;;5054485;28;20703;-66
2023/12/16 01:18:43;;;;;;;21.60;7.73;;;7.20;1.00;;;;;;5058724;28;20232;-70
2023/12/16 01:21:09;;;;;;;15.90;6.40;;;7.20;1.00;;;;;;5071476;28;20439;-66
2023/12/16 01:23:36;;;;;;;23.17;6.60;;;7.20;1.00;;;;;;5053428;28;20414;-70
2023/12/16 01:26:04;;;;;;;13.07;6.93;;;7.20;1.00;;;;;;5052709;28;20171;-69
2023/12/16 01:28:30;;;;;;;17.60;7.53;;;7.10;1.00;;;;;;5072204;28;20478;-70
2023/12/16 01:30:56;;;;;;;20.53;8.60;;;7.10;1.00;;;;;;5070441;28;20448;-66
2023/12/16 01:33:22;;;;;;;10.80;5.93;;;7.20;1.00;;;;;;5072624;28;20405;-67
2023/12/16 01:35:48;;;;;;;15.90;6.70;;;7.10;1.00;;;;;;5071496;28;20543;-67
2023/12/16 01:38:14;;;;;;;20.50;7.23;;;7.10;1.00;;;;;;5069850;28;20564;-67
2023/12/16 01:40:40;;;;;;;25.43;9.07;;;7.10;1.00;;;;;;5076732;28;20175;-68
2023/12/16 01:43:06;;;;;;;19.97;7.70;;;7.10;1.00;;;;;;5061817;28;20959;-71
2023/12/16 01:45:32;;;;;;;27.77;7.97;;;7.10;1.00;;;;;;5058111;28;20257;-67
2023/12/16 01:47:59;;;;;;;25.60;7.27;;;7.10;1.00;;;;;;5077609;28;20529;-70
2023/12/16 01:50:26;;;;;;;16.57;7.23;;;7.10;1.00;;;;;;5080215;28;20480;-71
2023/12/16 01:52:53;;;;;;;14.47;6.80;;;7.10;1.00;;;;;;5078349;28;20770;-71
2023/12/16 01:55:20;;;;;;;23.70;8.10;;;7.10;1.00;;;;;;5079191;28;20407;-66
2023/12/16 01:57:46;;;;;;;19.07;8.23;;;7.10;1.00;;;;;;5062214;28;20478;-66
2023/12/16 02:00:13;;;;;;;25.87;8.60;;;7.10;1.00;;;;;;5059039;28;20402;-71
2023/12/16 02:02:40;;;;;;;17.77;7.67;;;7.10;1.00;;;;;;5060025;28;20390;-70
2023/12/16 02:05:07;;;;;;;14.43;7.20;;;7.00;1.00;;;;;;5070983;28;20481;-68
2023/12/16 02:07:32;;;;;;;12.90;7.60;;;7.00;1.00;;;;;;5079630;28;20940;-70
2023/12/16 02:09:58;;;;;;;22.77;6.90;;;7.00;1.00;;;;;;5069710;28;20426;-71
2023/12/16 02:12:27;;;;;;;12.80;6.73;;;7.00;1.00;;;;;;5065671;28;20171;-66
2023/12/16 02:14:52;;;;;;;22.43;8.33;;;7.00;1.00;;;;;;5064632;28;20849;-71
2023/12/16 02:17:18;;;;;;;23.00;7.70;;;7.00;1.00;;;;;;5079687;28;20476;-67
2023/12/16 02:19:47;;;;;;;24.30;8.20;;;7.00;1.00;;;;;;5079845;28;20166;-67
2023/12/16 02:22:13;;;;;;;15.00;7.20;;;7.10;1.00;;;;;;5061252;28;20408;-67
2023/12/16 02:24:41;;;;;;;26.80;8.63;;;7.10;1.00;;;;;;5057892;28;20778;-66
2023/12/16 02:27:08;;;;;;;13.30;6.57;;;7.10;1.00;;;;;;5059811;28;20486;-71
2023/12/16 02:29:33;;;;;;;18.33;6.77;;;7.00;1.00;;;;;;5058818;28;20388;-66
2023/12/16 02:31:59;;;;;;;17.47;7.83;;;7.10;1.00;;;;;;5058659;28;20422;-67
2023/12/16 02:34:25;;;;;;;19.37;8.10;;;7.10;1.00;;;;;;5079150;28;20173;-67
2023/12/16 02:36:51;;;;;;;18.80;6.60;;;7.10;1.00;;;;;;5078858;28;20477;-67
2023/12/16 02:39:17;;;;;;;14.40;6.57;;;7.00;1.00;;;;;;5059914;28;20411;-69
2023/12/16 02:41:43;;;;;;;20.57;7.77;;;7.00;1.00;;;;;;5058991;28;20311;-67
2023/12/16 02:44:09;;;;;;;27.50;6.20;;;7.00;1.00;;;;;;5058495;28;20203;-67
2023/12/16 02:46:34;;;;;;;16.47;5.70;;;7.00;1.00;;;;;;5047125;28;20515;-67
2023/12/16 02:49:00;;;;;;;14.33;6.10;;;7.00;1.00;;;;;;5059844;28;20195;-71
2023/12/16 02:51:26;;;;;;;17.13;6.83;;;7.10;1.00;;;;;;5069304;28;20236;-67
2023/12/16 02:53:53;;;;;;;18.27;6.00;;;7.10;1.00;;;;;;5057788;28;20259;-66
2023/12/16 02:56:18;;;;;;;19.17;5.90;;;7.10;1.00;;;;;;5055664;28;20180;-71
2023/12/16 02:58:44;;;;;;;11.77;5.70;;;7.10;1.00;;;;;;5055691;28;20982;-71
2023/12/16 03:01:10;;;;;;;19.73;6.97;;;7.00;1.00;;;;;;5056104;28;20205;-71
2023/12/16 03:03:39;;;;;;;29.30;6.33;;;7.10;1.00;;;;;;5056400;28;20167;-71
2023/12/16 03:06:06;;;;;;;15.20;7.77;;;7.10;1.00;;;;;;5054529;28;20833;-67
2023/12/16 03:08:33;;;;;;;16.80;6.87;;;7.10;1.00;;;;;;5056410;28;20439;-67
2023/12/16 03:11:00;;;;;;;16.53;5.60;;;7.10;1.00;;;;;;5055179;28;20401;-68
2023/12/16 03:13:26;;;;;;;13.37;5.57;;;7.20;1.00;;;;;;5067715;28;20444;-69
2023/12/16 03:15:52;;;;;;;22.47;5.70;;;7.20;1.00;;;;;;5075056;28;20498;-67
2023/12/16 03:18:18;;;;;;;17.93;6.17;;;7.20;1.00;;;;;;5074885;28;20194;-69
2023/12/16 03:20:43;;;;;;;16.90;7.23;;;7.20;1.00;;;;;;5075096;28;20410;-71
2023/12/16 03:23:09;;;;;;;19.17;6.00;;;7.20;1.00;;;;;;5075622;28;20508;-67
2023/12/16 03:25:37;;;;;;;20.67;6.67;;;7.20;1.00;;;;;;5075147;28;20184;-67
2023/12/16 03:28:03;;;;;;;15.90;8.03;;;7.30;1.00;;;;;;5070426;28;20224;-69
2023/12/16 03:30:29;;;;;;;15.17;6.10;;;7.30;1.00;;;;;;5055837;28;20429;-71
2023/12/16 03:32:55;;;;;;;14.17;6.30;;;7.30;1.00;;;;;;5055559;28;20485;-71
2023/12/16 03:35:21;;;;;;;22.03;6.27;;;7.40;1.00;;;;;;5072725;28;20300;-66
2023/12/16 03:37:47;;;;;;;10.47;7.00;;;7.40;1.00;;;;;;5075444;28;20290;-67
2023/12/16 03:40:13;;;;;;;16.03;6.57;;;7.40;1.00;;;;;;5075870;28;20445;-71
2023/12/16 03:42:38;;;;;;;11.90;5.53;;;7.40;1.00;;;;;;5069079;28;20228;-67
2023/12/16 03:45:05;;;;;;;21.40;5.70;;;7.40;1.00;;;;;;5058736;28;20179;-66
2023/12/16 03:47:31;;;;;;;21.10;7.23;;;7.40;1.00;;;;;;5074426;28;20589;-67
2023/12/16 03:49:57;;;;;;;16.70;5.60;;;7.40;1.00;;;;;;5075143;28;20742;-70
2023/12/16 03:52:23;;;;;;;11.60;4.60;;;7.40;1.00;;;;;;5065418;28;20430;-67
2023/12/16 03:54:48;;;;;;;8.93;5.20;;;7.40;1.00;;;;;;5055240;28;20184;-69
2023/12/16 03:57:15;;;;;;;13.80;4.93;;;7.40;1.00;;;;;;5072910;28;20202;-70
2023/12/16 03:59:40;;;;;;;18.23;7.80;;;7.30;1.00;;;;;;5045891;28;20192;-67
2023/12/16 04:02:06;;;;;;;22.97;5.63;;;7.30;1.00;;;;;;5073916;28;20437;-70
2023/12/16 04:04:33;;;;;;;14.40;5.23;;;7.30;1.00;;;;;;5072844;28;20266;-71
2023/12/16 04:07:00;;;;;;;15.23;5.57;;;7.20;1.00;;;;;;5075950;28;20207;-66
2023/12/16 04:09:27;;;;;;;21.70;5.27;;;7.30;1.00;;;;;;5074665;28;20409;-67
2023/12/16 04:11:53;;;;;;;14.97;4.43;;;7.30;1.00;;;;;;5074789;28;20401;-67
2023/12/16 04:14:18;;;;;;;7.40;4.37;;;7.30;1.00;;;;;;5073754;28;20393;-67
2023/12/16 04:16:44;;;;;;;13.67;4.90;;;7.30;1.00;;;;;;5072734;28;20535;-69
2023/12/16 04:19:12;;;;;;;19.80;5.93;;;7.30;1.00;;;;;;5074934;28;20163;-67
2023/12/16 04:21:38;;;;;;;13.90;4.70;;;7.20;1.00;;;;;;5069345;28;20449;-71
2023/12/16 04:24:03;;;;;;;11.60;4.87;;;7.20;1.00;;;;;;5059400;28;20441;-66
2023/12/16 04:26:29;;;;;;;13.20;4.67;;;7.20;1.00;;;;;;5053395;28;21268;-66
2023/12/16 04:28:55;;;;;;;19.33;5.63;;;7.20;1.00;;;;;;5052401;28;20516;-68
2023/12/16 04:31:21;;;;;;;9.23;4.57;;;7.30;1.00;;;;;;5052877;28;20187;-71
2023/12/16 04:33:48;;;;;;;9.97;4.60;;;7.20;1.00;;;;;;5054331;28;20206;-67
2023/12/16 04:36:17;;;;;;;34.17;5.13;;;7.20;1.00;;;;;;5053740;28;20271;-66
2023/12/16 04:38:43;;;;;;;16.07;5.40;;;7.20;1.00;;;;;;5054113;28;20800;-71
2023/12/16 04:41:13;;;;;;;13.10;4.80;;;7.10;1.00;;;;;;5054388;28;20763;-66
2023/12/16 04:43:39;;;;;;;18.00;5.83;;;7.10;1.00;;;;;;5067517;28;20811;-71
2023/12/16 04:46:06;;;;;;;5.27;4.17;;;7.10;1.00;;;;;;5073604;28;20380;-71
2023/12/16 04:48:31;;;;;;;8.43;4.13;;;7.00;1.00;;;;;;5074469;28;20395;-69
2023/12/16 04:51:04;;;;;;;12.27;5.50;;;7.00;1.00;;;;;;5071141;28;20495;-71
2023/12/16 04:53:30;;;;;;;20.47;5.30;;;7.00;1.00;;;;;;5036296;28;20283;-71
2023/12/16 04:55:56;;;;;;;6.73;4.83;;;6.90;1.00;;;;;;5035193;28;20457;-66
2023/12/16 04:58:22;;;;;;;10.87;4.37;;;6.90;1.00;;;;;;5053658;28;20403;-70
2023/12/16 05:00:47;;;;;;;10.47;3.77;;;6.90;1.00;;;;;;5053086;28;20264;-70
2023/12/16 05:03:13;;;;;;;10.43;5.07;;;6.80;1.00;;;;;;5054090;28;20249;-67
2023/12/16 05:05:39;;;;;;;11.73;4.50;;;6.80;1.00;;;;;;5052260;28;20178;-67
2023/12/16 05:08:04;;;;;;;13.20;5.23;;;6.80;1.00;;;;;;5053951;28;20191;-71
2023/12/16 05:10:30;;;;;;;11.50;5.30;;;6.80;99.90;;;;;;5057683;28;20167;-71
2023/12/16 05:12:56;;;;;;;9.50;4.10;;;6.80;1.00;;;;;;5072493;28;20170;-69
2023/12/16 05:15:22;;;;;;;10.50;6.60;;;6.80;99.90;;;;;;5072307;28;20645;-66
2023/12/16 05:17:47;;;;;;;6.40;4.57;;;6.80;99.90;;;;;;5071237;28;20256;-69
2023/12/16 05:20:14;;;;;;;8.07;4.17;;;6.90;99.90;;;;;;5062095;28;20194;-71
2023/12/16 05:22:40;;;;;;;16.57;5.03;;;6.80;99.90;;;;;;5053480;28;20163;-70
2023/12/16 05:25:06;;;;;;;11.70;4.87;;;6.80;99.90;;;;;;5063504;28;21008;-71
2023/12/16 05:27:32;;;;;;;5.90;4.03;;;6.80;99.90;;;;;;5073527;28;20426;-68
2023/12/16 05:29:59;;;;;;;11.40;4.77;;;6.80;99.90;;;;;;5073563;28;20404;-66
2023/12/16 05:32:26;;;;;;;13.60;4.67;;;6.80;99.90;;;;;;5065569;28;20403;-70
2023/12/16 05:34:51;;;;;;;11.37;4.03;;;6.80;99.90;;;;;;5072890;28;21222;-67
2023/12/16 05:37:17;;;;;;;13.43;5.60;;;6.70;99.90;;;;;;5071995;28;20456;-68
2023/12/16 05:39:43;;;;;;;14.90;5.03;;;6.70;99.90;;;;;;5070404;28;20190;-70
2023/12/16 05:42:09;;;;;;;9.53;4.17;;;6.70;99.90;;;;;;5071625;28;20170;-68
2023/12/16 05:44:35;;;;;;;5.73;4.13;;;6.70;99.90;;;;;;5071889;28;20173;-71
2023/12/16 05:47:01;;;;;;;14.93;5.00;;;6.80;99.90;;;;;;5073425;28;20983;-70
2023/12/16 05:49:27;;;;;;;10.20;5.30;;;6.80;99.90;;;;;;5073555;28;20428;-71
2023/12/16 05:51:54;;;;;;;9.03;4.20;;;6.70;99.90;;;;;;5069198;28;20186;-66
2023/12/16 05:54:20;;;;;;;10.90;4.77;;;6.60;99.90;;;;;;5054271;28;20175;-70
2023/12/16 05:56:45;;;;;;;9.33;4.20;;;6.60;99.90;;;;;;5052610;28;20506;-71
2023/12/16 05:59:11;;;;;;;7.43;3.77;;;6.60;99.90;;;;;;5055150;28;20159;-66
2023/12/16 06:01:36;;;;;;;19.27;5.10;;;6.70;99.90;;;;;;5063176;28;20186;-66
2023/12/16 06:04:02;;;;;;;4.07;3.70;;;6.70;99.90;;;;;;5059660;28;20211;-69
2023/12/16 06:06:30;;;;;;;8.67;4.40;;;6.70;99.90;;;;;;5050986;28;20175;-69
2023/12/16 06:08:56;;;;;;;15.67;4.60;;;6.60;99.90;;;;;;5053118;28;20198;-66
2023/12/16 06:11:23;;;;;;;12.37;4.27;;;6.70;99.90;;;;;;5052852;28;20405;-66
2023/12/16 06:13:50;;;;;;;9.00;3.77;;;6.70;99.90;;;;;;5053656;28;20503;-70
2023/12/16 06:16:16;;;;;;;9.73;4.27;;;6.70;99.90;;;;;;5060054;28;20452;-71
2023/12/16 06:18:51;;;;;;;5.97;3.87;;;6.70;99.90;;;;;;5059467;28;20937;-71
2023/12/16 06:21:16;;;;;;;4.67;3.53;;;6.80;99.90;;;;;;5052821;28;20400;-67
2023/12/16 06:23:42;;;;;;;6.43;3.90;;;6.80;99.90;;;;;;5053112;28;20455;-71
2023/12/16 06:26:08;;;;;;;8.60;4.37;;;6.80;99.90;;;;;;5051938;28;20175;-69
2023/12/16 06:28:34;;;;;;;6.57;3.90;;;6.80;99.90;;;;;;5056584;28;20406;-66
2023/12/16 06:31:00;;;;;;;7.90;3.43;;;6.90;99.90;;;;;;5056786;28;20635;-70
2023/12/16 06:33:25;;;;;;;8.43;3.87;;;6.90;99.90;;;;;;5056747;28;20409;-71
2023/12/16 06:35:51;;;;;;;5.27;3.53;;;6.90;99.90;;;;;;5052376;28;20724;-67
2023/12/16 06:38:17;;;;;;;9.43;5.07;;;6.90;99.90;;;;;;5057008;28;20193;-68
2023/12/16 06:40:43;;;;;;;5.33;3.70;;;7.00;99.90;;;;;;5062929;28;20427;-71
2023/12/16 06:43:08;;;;;;;7.57;4.30;;;7.00;99.90;;;;;;5075266;28;20163;-71
2023/12/16 06:45:34;;;;;;;4.60;3.97;;;7.10;99.90;;;;;;5073194;28;20408;-71
2023/12/16 06:48:00;;;;;;;8.50;4.00;;;7.00;99.90;;;;;;5076668;28;20182;-70
2023/12/16 06:50:26;;;;;;;12.20;3.70;;;7.10;99.90;;;;;;5048500;28;20495;-66
2023/12/16 06:52:52;;;;;;;3.20;2.90;;;7.20;99.90;;;;;;5036591;28;20416;-69
2023/12/16 06:55:18;;;;;;;8.03;4.10;;;7.20;99.90;;;;;;5055274;28;20427;-70
2023/12/16 06:57:44;;;;;;;11.13;4.13;;;7.20;99.90;;;;;;5066220;28;20492;-66
2023/12/16 07:00:11;;;;;;;7.40;5.00;;;7.20;99.90;;;;;;5060658;28;20228;-66
2023/12/16 07:02:37;;;;;;;8.53;4.70;;;7.20;99.90;;;;;;5056109;28;20421;-66
2023/12/16 07:05:04;;;;;;;14.93;4.70;;;7.20;99.90;;;;;;5054013;28;20508;-67
2023/12/16 07:07:31;;;;;;;6.67;3.80;;;7.20;99.90;;;;;;5056229;28;20422;-66
2023/12/16 07:09:56;;;;;;;9.33;4.93;;;7.20;99.90;;;;;;5059609;28;20439;-70
2023/12/16 07:12:23;;;;;;;12.40;5.07;;;7.20;99.90;;;;;;5071125;28;20432;-71
2023/12/16 07:14:49;;;;;;;6.37;4.40;;;7.20;99.90;;;;;;5071858;28;20595;-71
2023/12/16 07:17:14;;;;;;;11.47;5.23;;;7.20;99.90;;;;;;5062118;28;20494;-67
2023/12/16 07:19:41;;;;;;;9.83;3.83;;;7.20;99.90;;;;;;5067448;28;20425;-66
2023/12/16 07:22:07;;;;;;;11.07;4.47;;;7.30;99.90;;;;;;5055069;28;20167;-71
2023/12/16 07:24:33;;;;;;;6.90;3.60;;;7.30;99.90;;;;;;5068166;28;20465;-68
2023/12/16 07:26:58;;;;;;;8.83;4.20;;;7.20;99.90;;;;;;5070965;28;20280;-65
2023/12/16 07:29:25;;;;;;;10.37;3.50;;;7.20;99.90;;;;;;5075650;28;20255;-68
2023/12/16 07:31:51;;;;;;;11.43;4.90;;;7.20;99.90;;;;;;5056223;28;20411;-67
2023/12/16 07:34:17;;;;;;;9.87;5.33;;;7.20;99.90;;;;;;5056334;28;20181;-71
2023/12/16 07:36:44;;;;;;;16.30;5.10;;;7.10;99.90;;;;;;5049809;28;20286;-71
2023/12/16 07:39:09;;;;;;;9.50;4.30;;;7.20;99.90;;;;;;5054256;28;20449;-72
2023/12/16 07:41:35;;;;;;;8.03;4.60;;;7.20;99.90;;;;;;5063716;28;20459;-71
2023/12/16 07:44:02;;;;;;;12.73;4.77;;;7.20;99.90;;;;;;5064122;28;20693;-66
2023/12/16 07:46:28;;;;;;;6.63;4.63;;;7.20;99.90;;;;;;5054010;28;20921;-68
2023/12/16 07:48:54;;;;;;;11.93;5.87;;;7.20;99.90;;;;;;5054707;28;20484;-69
2023/12/16 07:51:19;;;;;;;7.83;5.27;;;7.10;99.90;;;;;;5055423;28;20733;-71
2023/12/16 07:53:48;;;;;;;11.83;4.40;;;7.20;99.90;;;;;;5053305;28;20210;-67
2023/12/16 07:56:24;;;;;;;15.87;5.13;;;7.20;99.90;;;;;;5061052;28;20240;-66
2023/12/16 07:58:50;;;;;;;16.60;5.03;;;7.10;99.90;;;;;;5071336;28;20821;-71
2023/12/16 08:01:18;;;;;;;12.50;5.10;;;7.00;99.90;;;;;;5071166;28;20760;-67
2023/12/16 08:03:44;;;;;;;8.53;5.70;;;7.00;99.90;;;;;;5074982;28;20492;-71
2023/12/16 08:06:10;;;;;;;7.47;5.17;;;7.10;99.90;;;;;;5073944;28;20383;-67
2023/12/16 08:08:40;;;;;;;10.93;6.37;;;7.10;99.90;;;;;;5073939;28;20959;-67
2023/12/16 08:11:06;;;;;;;13.23;5.00;;;7.10;99.90;;;;;;5069764;28;20186;-70
2023/12/16 08:13:32;;;;;;;7.30;5.83;;;7.10;99.90;;;;;;5063001;28;20407;-68
2023/12/16 08:15:58;;;;;;;14.67;7.17;;;7.10;99.90;;;;;;5053794;28;20451;-71
2023/12/16 08:18:26;;;;;;;14.47;5.47;;;7.10;99.90;;;;;;5066572;28;20855;-71
2023/12/16 08:20:51;;;;;;;10.87;6.47;;;7.00;99.90;;;;;;5053344;28;21021;-70
2023/12/16 08:23:18;;;;;;;11.67;6.60;;;7.00;99.90;;;;;;5054387;28;20453;-71
2023/12/16 08:25:44;;;;;;;17.50;7.40;;;7.10;99.90;;;;;;5060494;28;20181;-67
2023/12/16 08:28:09;;;;;;;10.53;6.47;;;7.10;99.90;;;;;;5064422;28;20760;-68
2023/12/16 08:30:35;;;;;;;14.73;6.93;;;7.00;99.90;;;;;;5060821;28;20177;-66
2023/12/16 08:33:01;;;;;;;11.23;7.23;;;7.00;99.90;;;;;;5042920;28;20556;-70
2023/12/16 08:35:27;;;;;;;10.67;7.40;;;7.00;99.90;;;;;;5053101;28;20185;-66
2023/12/16 08:37:55;;;;;;;13.03;6.80;;;7.00;99.90;;;;;;5069489;28;20214;-72
2023/12/16 08:40:21;;;;;;;15.60;7.50;;;7.00;99.90;;;;;;5061434;28;20433;-70
2023/12/16 08:42:46;;;;;;;17.20;6.93;;;7.00;1.00;;;;;;5054528;28;20850;-69
2023/12/16 08:45:13;;;;;;;17.80;8.40;;;7.00;1.00;;;;;;5052702;28;20504;-66
2023/12/16 08:47:38;;;;;;;16.10;7.67;;;7.00;1.00;;;;;;5054718;28;20201;-66
2023/12/16 08:50:06;;;;;;;12.67;8.40;;;7.00;1.00;;;;;;5054021;28;20874;-67
2023/12/16 08:52:32;;;;;;;19.20;8.90;;;7.00;1.00;;;;;;5054118;28;20167;-70
2023/12/16 08:54:58;;;;;;;12.13;7.63;;;7.10;1.00;;;;;;5041782;28;20501;-70
2023/12/16 08:57:24;;;;;;;24.80;9.53;;;7.10;1.00;;;;;;5055509;28;21033;-71
2023/12/16 08:59:50;;;;;;;30.30;9.90;;;7.10;1.00;;;;;;5054933;28;20216;-66
2023/12/16 09:02:15;;;;;;;18.10;9.70;;;7.20;1.00;;;;;;5054114;28;20401;-71
2023/12/16 09:04:41;;;;;;;19.97;10.03;;;7.10;1.00;;;;;;5053475;28;20174;-69
2023/12/16 09:07:07;;;;;;;19.50;9.90;;;7.10;1.00;;;;;;5052533;28;20206;-71
2023/12/16 09:09:33;;;;;;;15.43;8.80;;;7.10;1.00;;;;;;5054766;28;20301;-72
2023/12/16 09:11:58;;;;;;;17.37;9.20;;;7.20;1.00;;;;;;5054134;28;20206;-66
2023/12/16 09:14:24;;;;;;;16.80;9.00;;;7.20;1.00;;;;;;5053706;28;20171;-67
2023/12/16 09:16:50;;;;;;;17.17;7.93;;;7.20;1.00;;;;;;5052669;28;20342;-71
2023/12/16 09:19:15;;;;;;;11.40;9.33;;;7.20;1.00;;;;;;5054120;28;20174;-67
2023/12/16 09:21:44;;;;;;;18.80;9.00;;;7.20;1.00;;;;;;5053453;28;20887;-69
2023/12/16 09:24:10;;;;;;;20.13;9.07;;;7.20;1.00;;;;;;5053160;28;20694;-71
2023/12/16 09:26:36;;;;;;;13.00;8.90;;;7.20;1.00;;;;;;5052834;28;20882;-70
2023/12/16 09:29:03;;;;;;;16.57;9.10;;;7.20;1.00;;;;;;5053467;28;20401;-71
2023/12/16 09:31:29;;;;;;;14.67;8.13;;;7.30;1.00;;;;;;5054149;28;20318;-65
2023/12/16 09:33:54;;;;;;;17.40;8.50;;;7.30;1.00;;;;;;5053808;28;20922;-66
2023/12/16 09:36:26;;;;;;;11.60;7.90;;;7.30;1.00;;;;;;5051968;28;20551;-66
2023/12/16 09:38:55;;;;;;;16.53;9.27;;;7.30;1.00;;;;;;5053591;28;20190;-65
2023/12/16 09:41:26;;;;;;;17.67;10.00;;;7.30;1.00;;;;;;5053220;28;20967;-69
2023/12/16 09:43:53;;;;;;;13.70;10.27;;;7.30;1.00;;;;;;5053259;28;20546;-71
2023/12/16 09:46:20;;;;;;;25.33;9.60;;;7.20;1.00;;;;;;5052969;28;20751;-69
2023/12/16 09:48:46;;;;;;;14.97;8.60;;;7.20;1.00;;;;;;5053771;28;20432;-70
2023/12/16 09:51:12;;;;;;;11.23;9.20;;;7.20;1.00;;;;;;5053412;28;20766;-67
2023/12/16 09:53:39;;;;;;;14.27;9.10;;;7.30;1.00;;;;;;5053068;28;20163;-69
2023/12/16 09:56:05;;;;;;;21.33;10.83;;;7.20;1.00;;;;;;5053220;28;20790;-67
2023/12/16 09:58:33;;;;;;;15.40;9.97;;;7.20;1.00;;;;;;5052462;28;20441;-69
2023/12/16 10:01:01;;;;;;;23.33;10.00;;;7.20;1.00;;;;;;5053909;28;20459;-68
2023/12/16 10:03:27;;;;;;;11.33;9.70;;;7.30;1.00;;;;;;5056999;28;20500;-71
2023/12/16 10:05:53;;;;;;;15.50;9.93;;;7.30;1.00;;;;;;5056614;28;20766;-67
2023/12/16 10:08:19;;;;;;;19.13;9.43;;;7.30;1.00;;;;;;5057534;28;20432;-71
2023/12/16 10:10:44;;;;;;;18.27;10.23;;;7.30;1.00;;;;;;5057739;28;20628;-70
2023/12/16 10:13:10;;;;;;;20.00;12.13;;;7.30;1.00;;;;;;5056824;28;20167;-67
2023/12/16 10:15:37;;;;;;;14.27;9.83;;;7.30;1.00;;;;;;5056483;28;20558;-72
2023/12/16 10:18:04;;;;;;;17.20;10.60;;;7.40;1.00;;;;;;5056703;28;20278;-71
2023/12/16 10:20:30;;;;;;;14.90;9.63;;;7.40;1.00;;;;;;5057278;28;20399;-69
2023/12/16 10:22:59;;;;;;;17.27;10.97;;;7.40;1.00;;;;;;5057002;28;20959;-72
2023/12/16 10:25:25;;;;;;;16.83;9.87;;;7.40;1.00;;;;;;5054896;28;20421;-71
2023/12/16 10:28:02;;;;;;;16.50;11.00;;;7.40;1.00;;;;;;5061899;28;20454;-71
2023/12/16 10:30:29;;;;;;;23.00;11.20;;;7.40;1.00;;;;;;5053672;28;20417;-71
2023/12/16 10:32:55;;;;;;;21.10;12.03;;;7.40;1.00;;;;;;5053790;28;20417;-66
2023/12/16 10:35:23;;;;;;;11.37;8.67;;;7.40;1.00;;;;;;5036325;28;20396;-66
2023/12/16 10:37:50;;;;;;;19.03;10.93;;;7.40;1.00;;;;;;5035392;28;20458;-67
2023/12/16 10:40:17;;;;;;;14.47;10.60;;;7.40;1.00;;;;;;5037721;28;20429;-68
2023/12/16 10:42:43;;;;;;;19.43;11.30;;;7.40;1.00;;;;;;5050126;28;20404;-70
2023/12/16 10:45:12;;;;;;;15.73;10.67;;;7.50;1.00;;;;;;5045080;28;20878;-67
2023/12/16 10:47:39;;;;;;;20.60;11.00;;;7.50;1.00;;;;;;5036254;28;21020;-73
2023/12/16 10:50:09;;;;;;;19.30;10.20;;;7.50;1.00;;;;;;5045200;28;20436;-66
2023/12/16 10:52:40;;;;;;;18.50;11.87;;;7.40;1.00;;;;;;5060107;28;20505;-67
2023/12/16 10:55:07;;;;;;;23.97;13.53;;;7.40;1.00;;;;;;5046861;28;20421;-67
2023/12/16 10:57:49;;;;;;;27.33;12.17;;;7.40;1.00;;;;;;5055178;28;20469;-66
2023/12/16 11:00:30;;;;;;;22.20;11.47;;;7.50;1.00;;;;;;5053917;28;20762;-67
2023/12/16 11:03:04;;;;;;;18.80;11.90;;;7.50;1.00;;;;;;5065749;28;20420;-71
2023/12/16 11:05:32;;;;;;;23.87;12.57;;;7.50;1.00;;;;;;5070454;28;21367;-71
2023/12/16 11:08:02;;;;;;;18.73;12.83;;;7.50;1.00;;;;;;5073618;28;20473;-69
2023/12/16 11:10:32;;;;;;;24.07;12.47;;;7.50;1.00;;;;;;5056981;28;20421;-67
2023/12/16 11:13:00;;;;;;;22.00;13.13;;;7.50;1.00;;;;;;5055147;28;20416;-66
2023/12/16 11:15:27;;;;;;;24.63;13.37;;;7.50;1.00;;;;;;5054936;28;20504;-71
2023/12/16 11:17:55;;;;;;;22.73;14.43;;;7.50;1.00;;;;;;5055588;28;20531;-67
2023/12/16 11:20:26;;;;;;;22.13;16.17;;;7.50;1.00;;;;;;5060456;28;20819;-71
2023/12/16 11:22:52;;;;;;;23.00;12.30;;;7.60;1.00;;;;;;5057066;28;20426;-67
2023/12/16 11:25:20;;;;;;;21.47;12.57;;;7.60;1.00;;;;;;5052370;28;20862;-72
2023/12/16 11:27:50;;;;;;;21.10;12.57;;;7.60;1.00;;;;;;5070359;28;20947;-70
2023/12/16 11:30:17;;;;;;;18.07;12.00;;;7.60;1.00;;;;;;5054619;28;20432;-69
2023/12/16 11:32:51;;;;;;;34.57;13.77;;;7.70;1.00;;;;;;5055253;28;20433;-72
2023/12/16 11:35:39;;;;;;;18.40;10.20;;;7.70;1.00;;;;;;5065733;28;20948;-71
2023/12/16 11:38:06;;;;;;;26.13;12.17;;;7.70;1.00;;;;;;5055352;28;20507;-67
2023/12/16 11:40:42;;;;;;;19.17;11.13;;;7.70;1.00;;;;;;5055325;28;20471;-72
2023/12/16 11:43:09;;;;;;;23.43;12.70;;;7.70;1.00;;;;;;5050121;28;20437;-71
2023/12/16 11:45:38;;;;;;;17.10;11.37;;;7.80;1.00;;;;;;5060180;28;20429;-71
2023/12/16 11:48:08;;;;;;;14.70;9.03;;;7.80;1.00;;;;;;5055575;28;20470;-67
2023/12/16 11:50:37;;;;;;;23.70;10.87;;;7.80;1.00;;;;;;5055760;28;20391;-71
2023/12/16 11:53:04;;;;;;;21.70;11.37;;;7.80;1.00;;;;;;5064813;28;20416;-69
2023/12/16 11:55:30;;;;;;;20.90;12.07;;;7.80;1.00;;;;;;5065899;28;20425;-69
2023/12/16 11:57:56;;;;;;;31.23;12.03;;;7.80;1.00;;;;;;5066987;28;20948;-71
2023/12/16 12:00:22;;;;;;;19.43;11.80;;;7.90;1.00;;;;;;5065327;28;20435;-71
2023/12/16 12:02:50;;;;;;;16.40;11.87;;;7.90;1.00;;;;;;5066950;28;21538;-68
2023/12/16 12:05:16;;;;;;;20.10;11.13;;;7.90;1.00;;;;;;5073022;28;20171;-68
2023/12/16 12:07:42;;;;;;;21.23;13.37;;;8.00;1.00;;;;;;5056576;28;20449;-73
2023/12/16 12:10:09;;;;;;;19.13;11.20;;;8.00;1.00;;;;;;5048543;28;20428;-68
2023/12/16 12:12:34;;;;;;;14.93;10.80;;;8.10;1.00;;;;;;5052549;28;20707;-68
2023/12/16 12:15:00;;;;;;;19.80;13.07;;;8.00;1.00;;;;;;5053468;28;20468;-69
2023/12/16 12:17:28;;;;;;;19.20;12.17;;;8.10;1.00;;;;;;5066317;28;20221;-72
2023/12/16 12:19:57;;;;;;;18.50;10.40;;;8.10;1.00;;;;;;5064564;28;20426;-69
2023/12/16 12:22:23;;;;;;;19.83;11.03;;;8.20;1.00;;;;;;5069513;28;20421;-69
2023/12/16 12:24:52;;;;;;;19.83;11.93;;;8.20;1.00;;;;;;5056961;28;20619;-71
2023/12/16 12:27:18;;;;;;;20.37;9.80;;;8.20;1.00;;;;;;5052481;28;20441;-67
2023/12/16 12:29:58;;;;;;;14.87;9.37;;;8.20;1.00;;;;;;5060446;28;20434;-67
2023/12/16 12:32:29;;;;;;;16.60;10.47;;;8.20;1.00;;;;;;5060231;28;20460;-72
2023/12/16 12:35:04;;;;;;;20.90;10.43;;;8.20;1.00;;;;;;5053022;28;20953;-70
2023/12/16 12:37:46;;;;;;;13.77;9.33;;;8.20;1.00;;;;;;5050629;28;20464;-70
2023/12/16 12:40:12;;;;;;;16.60;10.80;;;8.20;1.00;;;;;;5034835;28;20410;-72
2023/12/16 12:42:50;;;;;;;15.07;10.20;;;8.20;1.00;;;;;;5054849;28;20387;-71
2023/12/16 12:45:32;;;;;;;21.57;11.83;;;8.20;1.00;;;;;;5054086;28;20519;-68
2023/12/16 12:48:17;;;;;;;20.07;10.97;;;8.20;1.00;;;;;;5059321;28;20414;-71
2023/12/16 12:50:44;;;;;;;22.47;11.70;;;8.20;1.00;;;;;;5043772;28;20418;-71